WetterOnline ( https://www.wetteronline.de )

Wetter aktuell Bad Wilsnack

Aktuelles Wetter: Kyritz (42m)

6-stündlich | Neueste Meldungen
Ortszeit Temperatur Wetter
Fr, 24.05. 14:00 22.3° C wolkig
Fr, 24.05. 8:00 13.9° C wolkig
Fr, 24.05. 2:00 8.3° C bedeckt
Do, 23.05. 20:00 17.6° C wolkig
Do, 23.05. 14:00 18.1° C fast wolkenlos
Do, 23.05. 8:00 9.4° C leicht bewölkt
Do, 23.05. 2:00 9.1° C wolkenlos
Mi, 22.05. 20:00 13.3° C bewölkt
Ortszeit Temperatur Wetter
Fr, 24.05. 19:10 22.1° C wolkig
Fr, 24.05. 19:00 21.9° C bewölkt
Fr, 24.05. 18:50 21.9° C bewölkt
Fr, 24.05. 18:40 21.9° C wolkig
Fr, 24.05. 18:30 22.2° C leicht bewölkt
Fr, 24.05. 18:20 22.2° C leicht bewölkt
Fr, 24.05. 18:00 23.2° C wolkig
Fr, 24.05. 17:30 23.9° C wolkig
Fr, 24.05. 17:00 24.3° C leicht bewölkt
Fr, 24.05. 16:30 23.8° C wolkig
Ortszeit Relative Feuchte Sichtweite
Fr, 24.05. 14:00 34% 45 km
Fr, 24.05. 8:00 61% 50 km
Fr, 24.05. 2:00 86% 50 km
Do, 23.05. 20:00 51% 70 km
Do, 23.05. 14:00 40% 40 km
Do, 23.05. 8:00 82% 30 km
Do, 23.05. 2:00 86% 35 km
Mi, 22.05. 20:00 69% 60 km
Ortszeit Relative Feuchte Sichtweite
Fr, 24.05. 19:10 37% -
Fr, 24.05. 19:00 37% 70 km
Fr, 24.05. 18:50 37% -
Fr, 24.05. 18:40 38% -
Fr, 24.05. 18:30 36% 70 km
Fr, 24.05. 18:20 36% -
Fr, 24.05. 18:00 33% 70 km
Fr, 24.05. 17:30 33% 70 km
Fr, 24.05. 17:00 32% 50 km
Fr, 24.05. 16:30 33% 60 km
Ortszeit Niederschlagsmenge Niederschlagsart
Fr, 24.05. 14:00 0.0 l/m2 in 6 Std. -
Fr, 24.05. 8:00 0.0 l/m2 in 12 Std. -
Fr, 24.05. 2:00 0.0 l/m2 in 6 Std. -
Do, 23.05. 20:00 0.0 l/m2 in 12 Std. -
Do, 23.05. 14:00 0.0 l/m2 in 6 Std. -
Do, 23.05. 8:00 0.0 l/m2 in 12 Std. -
Do, 23.05. 2:00 0.0 l/m2 in 6 Std. -
Mi, 22.05. 20:00 0.1 l/m2 in 12 Std. -
Ortszeit Niederschlagsmenge Niederschlagsart
Fr, 24.05. 19:10 keine Meldung -
Fr, 24.05. 19:00 0.0 l/m2 in 1 Std. -
Fr, 24.05. 18:50 keine Meldung -
Fr, 24.05. 18:40 keine Meldung -
Fr, 24.05. 18:30 0.0 l/m2 in 1 Std. -
Fr, 24.05. 18:20 keine Meldung -
Fr, 24.05. 18:00 0.0 l/m2 in 1 Std. -
Fr, 24.05. 17:30 0.0 l/m2 in 1 Std. -
Fr, 24.05. 17:00 0.0 l/m2 in 1 Std. -
Fr, 24.05. 16:30 0.0 l/m2 in 1 Std. -
Ortszeit Stärke Spitze Richtung
km/h Bft. km/h Grad Sektor
Fr, 24.05. 14:00 20 4 41 230° SW
Fr, 24.05. 8:00 11 2 14 180° S
Fr, 24.05. 2:00 7 2 14 170° S
Do, 23.05. 20:00 4 1 29 40° NO
Do, 23.05. 14:00 15 3 30 310° NW
Do, 23.05. 8:00 7 2 20 290° W
Do, 23.05. 2:00 11 2 36 300° NW
Mi, 22.05. 20:00 18 3 43 310° NW
Ortszeit Stärke Spitze Richtung
km/h Bft. km/h Grad Sektor
Fr, 24.05. 19:10 9 2 - 250° W
Fr, 24.05. 19:00 9 2 26 250° W
Fr, 24.05. 18:50 9 2 - 250° W
Fr, 24.05. 18:40 9 2 - 260° W
Fr, 24.05. 18:30 11 2 26 260° W
Fr, 24.05. 18:20 11 2 - 260° W
Fr, 24.05. 18:00 14 3 29 270° W
Fr, 24.05. 17:30 14 3 29 260° W
Fr, 24.05. 17:00 22 4 36 230° SW
Fr, 24.05. 16:30 17 3 31 250° W
Ortszeit Untergrenze Bedeckung Gattung
total tief tief mittel hoch
Fr, 24.05. 14:00 5400 m 8/8 8/8 - - -
Fr, 24.05. 8:00 5400 m 8/8 8/8 - - -
Fr, 24.05. 2:00 6600 m 8/8 8/8 - - -
Do, 23.05. 20:00 1800 m 8/8 2/8 - - -
Do, 23.05. 14:00 10500 m 1/8 0/8 - - -
Do, 23.05. 8:00 9000 m 8/8 0/8 - - -
Do, 23.05. 2:00 - 0/8 0/8 - - -
Mi, 22.05. 20:00 780 m 8/8 4/8 - - -
Ortszeit Bedeckungsgrad in Achtel und Wolkenuntergrenze
Fr, 24.05. 19:10 4(2400m) 7(3000m)
Fr, 24.05. 19:00 7(2400m) 8(3000m)
Fr, 24.05. 18:50 7(2400m)
Fr, 24.05. 18:40 4(2400m) 6(2700m)
Fr, 24.05. 18:30 4(2700m) 4(9000m)
Fr, 24.05. 18:20 4(2700m) 4(9000m)
Fr, 24.05. 18:00 6(2400m) 7(9000m)
Fr, 24.05. 17:30 2(2400m) 7(9000m)
Fr, 24.05. 17:00 2(2100m) 4(9000m) 5(9000m)
Fr, 24.05. 16:30 3(2100m) 3(5700m) 7(9000m)
Ortszeit Luftdruck NN (hPa) Tendenz (hPa in 3 Std.)
Fr, 24.05. 14:00 1013 - 1,5
Fr, 24.05. 8:00 1015 - 0,6
Fr, 24.05. 2:00 1016 - 0,7
Do, 23.05. 20:00 1017 - 0,5
Do, 23.05. 14:00 1019 - 0,8
Do, 23.05. 8:00 1019 + 0,6
Do, 23.05. 2:00 1018 + 0,8
Mi, 22.05. 20:00 1016 + 0,7
Ortszeit Luftdruck NN (hPa) Tendenz (hPa in 3 Std.)
Fr, 24.05. 19:10 1011 keine Meldung
Fr, 24.05. 19:00 1011 - 1,2
Fr, 24.05. 18:50 1011 keine Meldung
Fr, 24.05. 18:40 1011 keine Meldung
Fr, 24.05. 18:30 1011 - 1,3
Fr, 24.05. 18:20 1011 keine Meldung
Fr, 24.05. 18:00 1011 - 1,4
Fr, 24.05. 17:30 1011 - 1,2
Fr, 24.05. 17:00 1012 - 1,1
Fr, 24.05. 16:30 1012 - 1,2
Ortszeit Schneehöhe (cm)
Fr, 24.05. 14:00 -
Fr, 24.05. 8:00 -
Fr, 24.05. 2:00 -
Do, 23.05. 20:00 -
Do, 23.05. 14:00 -
Do, 23.05. 8:00 -
Do, 23.05. 2:00 -
Mi, 22.05. 20:00 -
Ortszeit Schneehöhe (cm)
Fr, 24.05. 19:10 -
Fr, 24.05. 19:00 -
Fr, 24.05. 18:50 -
Fr, 24.05. 18:40 -
Fr, 24.05. 18:30 -
Fr, 24.05. 18:20 -
Fr, 24.05. 18:00 -
Fr, 24.05. 17:30 -
Fr, 24.05. 17:00 -
Fr, 24.05. 16:30 -
Link zu dieser Seite / Seite empfehlen

Das Wetter in ...